createdAt,value
2023-04-14T00:00:50.540Z,7.00
2023-04-14T00:07:50.850Z,6.90
2023-04-14T00:14:51.138Z,6.80
2023-04-14T00:21:52.592Z,6.70
2023-04-14T00:28:52.873Z,6.70
2023-04-14T00:35:53.310Z,6.60
2023-04-14T00:42:54.763Z,6.40
2023-04-14T00:49:56.180Z,6.40
2023-04-14T00:56:57.838Z,6.20
2023-04-14T01:03:58.312Z,6.00
2023-04-14T01:11:02.318Z,6.00
2023-04-14T01:18:19.728Z,6.00
2023-04-14T01:25:47.481Z,6.10
2023-04-14T01:32:52.266Z,6.10
2023-04-14T01:39:53.709Z,6.10
2023-04-14T01:47:00.204Z,6.00
2023-04-14T01:54:01.467Z,5.90
2023-04-14T02:01:02.912Z,5.80
2023-04-14T02:08:09.833Z,5.70
2023-04-14T02:15:13.548Z,5.60
2023-04-14T02:22:14.114Z,5.50
2023-04-14T02:29:16.278Z,5.50
2023-04-14T02:36:24.380Z,5.40
2023-04-14T02:43:31.536Z,5.30
2023-04-14T02:50:35.423Z,5.30
2023-04-14T02:57:50.357Z,5.20
2023-04-14T03:04:53.262Z,5.20
2023-04-14T03:12:07.934Z,5.10
2023-04-14T03:19:10.242Z,5.00
2023-04-14T03:26:18.350Z,4.90
2023-04-14T03:33:23.263Z,4.90
2023-04-14T03:40:25.909Z,4.80
2023-04-14T03:47:31.747Z,4.70
2023-04-14T03:54:36.103Z,4.60
2023-04-14T04:01:39.108Z,4.50
2023-04-14T04:08:41.637Z,4.40
2023-04-14T04:15:44.014Z,4.40
2023-04-14T04:22:46.973Z,4.30
2023-04-14T04:29:48.033Z,4.20
2023-04-14T04:36:50.405Z,4.10
2023-04-14T04:43:50.545Z,3.90
2023-04-14T04:50:50.961Z,3.90
2023-04-14T04:57:52.109Z,3.80
2023-04-14T05:04:52.571Z,3.80
2023-04-14T05:11:53.025Z,3.80
2023-04-14T05:18:53.465Z,3.90
2023-04-14T05:25:59.539Z,4.00
2023-04-14T05:33:07.474Z,4.00
2023-04-14T05:40:08.270Z,4.10
2023-04-14T05:47:08.800Z,4.10
2023-04-14T05:54:09.205Z,4.10
2023-04-14T06:01:09.583Z,4.20
2023-04-14T06:08:10.345Z,4.30
2023-04-14T06:15:10.739Z,4.50
2023-04-14T06:22:11.361Z,4.70
2023-04-14T06:29:12.040Z,4.90
2023-04-14T06:36:13.694Z,5.10
2023-04-14T06:43:14.922Z,5.30
2023-04-14T06:50:15.321Z,5.50
2023-04-14T06:57:15.813Z,5.70
2023-04-14T07:04:16.350Z,6.00
2023-04-14T07:11:16.452Z,6.20
2023-04-14T07:18:16.957Z,6.50
2023-04-14T07:25:17.181Z,6.70
2023-04-14T07:32:18.247Z,7.00
2023-04-14T07:39:22.840Z,7.20
2023-04-14T07:46:23.223Z,7.50
2023-04-14T07:53:23.886Z,7.80
2023-04-14T08:00:24.089Z,8.00
2023-04-14T08:07:24.473Z,8.30
2023-04-14T08:14:25.241Z,8.50
2023-04-14T08:21:26.931Z,8.80
2023-04-14T08:28:28.458Z,9.10
2023-04-14T08:35:37.530Z,9.30
2023-04-14T08:42:40.234Z,9.60
2023-04-14T08:50:02.101Z,9.90
2023-04-14T08:57:03.446Z,10.10
2023-04-14T09:04:04.720Z,10.50
2023-04-14T09:11:05.486Z,10.80
2023-04-14T09:18:06.482Z,11.00
2023-04-14T09:25:08.597Z,11.30
2023-04-14T09:32:09.255Z,11.50
2023-04-14T09:39:18.684Z,11.70
2023-04-14T09:46:20.233Z,11.90
2023-04-14T09:53:31.553Z,12.20
2023-04-14T10:00:32.155Z,12.30
2023-04-14T10:07:33.499Z,12.60
2023-04-14T10:14:33.958Z,12.60
2023-04-14T10:21:34.987Z,12.80
2023-04-14T10:28:37.300Z,12.90
2023-04-14T10:35:41.668Z,13.10
2023-04-14T10:42:55.820Z,13.20
2023-04-14T10:49:58.129Z,13.30
2023-04-14T10:57:15.434Z,13.50
2023-04-14T11:04:19.588Z,13.80
2023-04-14T11:11:27.497Z,14.00
2023-04-14T11:18:27.710Z,14.20
2023-04-14T11:25:28.085Z,14.40
2023-04-14T11:32:28.527Z,14.60
2023-04-14T11:39:29.828Z,14.90
2023-04-14T11:46:30.543Z,15.00
2023-04-14T11:53:31.182Z,15.10
2023-04-14T12:00:31.854Z,15.20
2023-04-14T12:07:32.139Z,15.30
2023-04-14T12:14:32.612Z,15.50
2023-04-14T12:21:33.201Z,15.60
2023-04-14T12:28:35.665Z,15.80
2023-04-14T12:35:36.105Z,15.80
2023-04-14T12:42:54.007Z,15.80
2023-04-14T12:49:55.554Z,16.00
2023-04-14T12:56:57.076Z,16.40
2023-04-14T13:03:57.876Z,16.90
2023-04-14T13:10:58.547Z,17.40
2023-04-14T13:17:59.135Z,17.80
2023-04-14T13:25:00.427Z,18.00
2023-04-14T13:32:00.994Z,18.30
2023-04-14T13:39:02.100Z,18.60
2023-04-14T13:46:03.108Z,18.80
2023-04-14T13:53:03.498Z,18.80
2023-04-14T14:00:07.654Z,19.20
2023-04-14T14:07:08.039Z,19.40
2023-04-14T14:14:08.502Z,19.60
2023-04-14T14:21:09.748Z,19.80
2023-04-14T14:28:10.979Z,19.80
2023-04-14T14:35:11.511Z,19.80
2023-04-14T14:42:12.107Z,20.80
2023-04-14T14:49:13.528Z,21.50
2023-04-14T14:56:13.994Z,22.10
2023-04-14T15:03:14.659Z,21.90
2023-04-14T15:10:15.163Z,21.70
2023-04-14T15:17:16.574Z,21.70
2023-04-14T15:24:16.760Z,21.50
2023-04-14T15:31:17.151Z,20.90
2023-04-14T15:38:17.373Z,20.10
2023-04-14T15:45:18.267Z,20.10
2023-04-14T15:52:18.729Z,20.30
2023-04-14T15:59:22.255Z,20.10
2023-04-14T16:06:23.121Z,19.90
2023-04-14T16:13:23.285Z,20.00
2023-04-14T16:20:23.664Z,19.70
2023-04-14T16:27:24.178Z,19.70
2023-04-14T16:34:24.786Z,19.60
2023-04-14T16:41:25.873Z,19.50
2023-04-14T16:48:26.458Z,19.40
2023-04-14T16:55:27.007Z,19.30
2023-04-14T17:02:27.623Z,18.90
2023-04-14T17:09:28.001Z,18.80
2023-04-14T17:16:28.595Z,18.50
2023-04-14T17:23:28.853Z,18.20
2023-04-14T17:30:29.246Z,17.90
2023-04-14T17:37:29.674Z,17.60
2023-04-14T17:44:32.584Z,17.40
2023-04-14T17:51:33.038Z,17.10
2023-04-14T17:58:33.438Z,16.80
2023-04-14T18:05:33.949Z,16.50
2023-04-14T18:12:34.460Z,16.30
2023-04-14T18:19:35.740Z,16.10
2023-04-14T18:26:36.060Z,15.80
2023-04-14T18:33:36.559Z,15.50
2023-04-14T18:40:38.118Z,15.10
2023-04-14T18:47:39.053Z,14.80
2023-04-14T18:54:39.377Z,14.50
2023-04-14T19:01:40.319Z,14.30
2023-04-14T19:08:40.362Z,14.00
2023-04-14T19:15:41.632Z,13.70
2023-04-14T19:22:41.649Z,13.40
2023-04-14T19:29:42.665Z,13.10
2023-04-14T19:36:43.462Z,13.00
2023-04-14T19:43:43.894Z,12.90
2023-04-14T19:50:54.053Z,12.90
2023-04-14T19:57:54.341Z,12.80
2023-04-14T20:04:54.686Z,12.70
2023-04-14T20:11:54.928Z,12.60
2023-04-14T20:18:55.438Z,12.40
2023-04-14T20:25:56.105Z,12.30
2023-04-14T20:32:56.785Z,12.10
2023-04-14T20:39:57.027Z,12.00
2023-04-14T20:46:57.524Z,11.80
2023-04-14T20:53:57.947Z,11.70
2023-04-14T21:00:58.492Z,11.60
2023-04-14T21:07:59.116Z,11.50
2023-04-14T21:15:44.066Z,11.40
2023-04-14T21:22:19.237Z,11.30
2023-04-14T21:29:19.483Z,11.10
2023-04-14T21:36:19.921Z,11.00
2023-04-14T21:43:20.546Z,10.90
2023-04-14T21:50:20.786Z,10.70
2023-04-14T21:57:44.408Z,10.60
2023-04-14T22:04:41.458Z,10.40
2023-04-14T22:11:41.791Z,10.30
2023-04-14T22:18:42.487Z,10.20
2023-04-14T22:25:43.094Z,10.10
2023-04-14T22:32:43.326Z,9.90
2023-04-14T22:39:44.016Z,9.70
2023-04-14T22:46:44.990Z,9.50
2023-04-14T22:53:46.488Z,9.30
2023-04-14T23:00:47.744Z,9.10
2023-04-14T23:07:48.496Z,9.00
2023-04-14T23:14:48.608Z,8.90
2023-04-14T23:21:48.863Z,8.80
2023-04-14T23:28:49.255Z,8.60
2023-04-14T23:35:50.901Z,8.50
2023-04-14T23:42:51.010Z,8.40
2023-04-14T23:49:51.779Z,8.40
2023-04-14T23:56:52.148Z,8.30
